sensor_id;sensor_type;location;lat;lon;timestamp;P1;durP1;ratioP1;P2;durP2;ratioP2
53108;SDS011;39007;53.090;6.074;2023-01-28T00:02:17;7.90;;;5.90;;
53108;SDS011;39007;53.090;6.074;2023-01-28T00:04:43;6.57;;;5.78;;
53108;SDS011;39007;53.090;6.074;2023-01-28T00:07:09;6.75;;;5.47;;
53108;SDS011;39007;53.090;6.074;2023-01-28T00:09:35;8.20;;;6.40;;
53108;SDS011;39007;53.090;6.074;2023-01-28T00:12:01;6.53;;;5.82;;
53108;SDS011;39007;53.090;6.074;2023-01-28T00:14:27;6.68;;;5.82;;
53108;SDS011;39007;53.090;6.074;2023-01-28T00:16:53;6.80;;;6.10;;
53108;SDS011;39007;53.090;6.074;2023-01-28T00:19:19;7.07;;;6.03;;
53108;SDS011;39007;53.090;6.074;2023-01-28T00:21:45;7.55;;;5.85;;
53108;SDS011;39007;53.090;6.074;2023-01-28T00:24:11;6.55;;;5.85;;
53108;SDS011;39007;53.090;6.074;2023-01-28T00:26:38;7.00;;;6.00;;
53108;SDS011;39007;53.090;6.074;2023-01-28T00:29:04;7.20;;;6.13;;
53108;SDS011;39007;53.090;6.074;2023-01-28T00:31:30;7.22;;;6.07;;
53108;SDS011;39007;53.090;6.074;2023-01-28T00:33:58;6.57;;;5.90;;
53108;SDS011;39007;53.090;6.074;2023-01-28T00:36:24;7.05;;;5.80;;
53108;SDS011;39007;53.090;6.074;2023-01-28T00:38:52;9.05;;;6.30;;
53108;SDS011;39007;53.090;6.074;2023-01-28T00:41:19;7.53;;;5.35;;
53108;SDS011;39007;53.090;6.074;2023-01-28T00:43:46;6.68;;;5.75;;
53108;SDS011;39007;53.090;6.074;2023-01-28T00:46:12;7.75;;;6.20;;
53108;SDS011;39007;53.090;6.074;2023-01-28T00:48:39;8.65;;;6.32;;
53108;SDS011;39007;53.090;6.074;2023-01-28T00:51:06;6.82;;;5.65;;
53108;SDS011;39007;53.090;6.074;2023-01-28T00:53:32;7.57;;;5.95;;
53108;SDS011;39007;53.090;6.074;2023-01-28T00:56:02;7.18;;;5.95;;
53108;SDS011;39007;53.090;6.074;2023-01-28T00:58:28;6.88;;;5.82;;
53108;SDS011;39007;53.090;6.074;2023-01-28T01:00:55;7.03;;;5.88;;
53108;SDS011;39007;53.090;6.074;2023-01-28T01:03:21;6.97;;;5.90;;
53108;SDS011;39007;53.090;6.074;2023-01-28T01:05:49;6.80;;;5.88;;
53108;SDS011;39007;53.090;6.074;2023-01-28T01:08:15;7.75;;;6.10;;
53108;SDS011;39007;53.090;6.074;2023-01-28T01:10:41;7.55;;;6.53;;
53108;SDS011;39007;53.090;6.074;2023-01-28T01:13:07;7.03;;;6.18;;
53108;SDS011;39007;53.090;6.074;2023-01-28T01:15:34;7.13;;;6.13;;
53108;SDS011;39007;53.090;6.074;2023-01-28T01:18:04;8.23;;;6.90;;
53108;SDS011;39007;53.090;6.074;2023-01-28T01:20:31;10.45;;;6.72;;
53108;SDS011;39007;53.090;6.074;2023-01-28T01:22:57;9.30;;;7.05;;
53108;SDS011;39007;53.090;6.074;2023-01-28T01:25:23;9.38;;;7.28;;
53108;SDS011;39007;53.090;6.074;2023-01-28T01:27:49;8.95;;;7.68;;
53108;SDS011;39007;53.090;6.074;2023-01-28T01:30:15;8.40;;;7.60;;
53108;SDS011;39007;53.090;6.074;2023-01-28T01:32:41;10.10;;;8.07;;
53108;SDS011;39007;53.090;6.074;2023-01-28T01:35:08;8.40;;;7.50;;
53108;SDS011;39007;53.090;6.074;2023-01-28T01:37:35;8.00;;;7.20;;
53108;SDS011;39007;53.090;6.074;2023-01-28T01:40:02;7.40;;;6.18;;
53108;SDS011;39007;53.090;6.074;2023-01-28T01:42:29;8.25;;;5.50;;
53108;SDS011;39007;53.090;6.074;2023-01-28T01:49:54;8.30;;;6.35;;
53108;SDS011;39007;53.090;6.074;2023-01-28T01:52:23;6.97;;;6.28;;
53108;SDS011;39007;53.090;6.074;2023-01-28T01:54:51;6.78;;;5.68;;
53108;SDS011;39007;53.090;6.074;2023-01-28T01:57:20;7.22;;;4.72;;
53108;SDS011;39007;53.090;6.074;2023-01-28T01:59:47;6.78;;;5.55;;
53108;SDS011;39007;53.090;6.074;2023-01-28T02:02:13;8.20;;;5.00;;
53108;SDS011;39007;53.090;6.074;2023-01-28T02:04:40;7.10;;;4.68;;
53108;SDS011;39007;53.090;6.074;2023-01-28T02:07:08;5.43;;;4.40;;
53108;SDS011;39007;53.090;6.074;2023-01-28T02:09:36;6.38;;;4.65;;
53108;SDS011;39007;53.090;6.074;2023-01-28T02:12:09;5.55;;;4.40;;
53108;SDS011;39007;53.090;6.074;2023-01-28T02:14:44;7.75;;;4.57;;
53108;SDS011;39007;53.090;6.074;2023-01-28T02:17:12;6.07;;;4.90;;
53108;SDS011;39007;53.090;6.074;2023-01-28T02:19:41;5.63;;;4.70;;
53108;SDS011;39007;53.090;6.074;2023-01-28T02:22:26;6.78;;;4.35;;
53108;SDS011;39007;53.090;6.074;2023-01-28T02:29:58;7.07;;;4.55;;
53108;SDS011;39007;53.090;6.074;2023-01-28T02:32:28;8.38;;;4.88;;
53108;SDS011;39007;53.090;6.074;2023-01-28T02:35:15;6.28;;;4.43;;
53108;SDS011;39007;53.090;6.074;2023-01-28T02:40:28;5.57;;;4.20;;
53108;SDS011;39007;53.090;6.074;2023-01-28T02:42:55;4.93;;;4.13;;
53108;SDS011;39007;53.090;6.074;2023-01-28T02:45:26;5.85;;;3.80;;
53108;SDS011;39007;53.090;6.074;2023-01-28T02:48:15;4.65;;;3.53;;
53108;SDS011;39007;53.090;6.074;2023-01-28T02:50:45;6.72;;;3.50;;
53108;SDS011;39007;53.090;6.074;2023-01-28T02:56:05;5.75;;;3.60;;
53108;SDS011;39007;53.090;6.074;2023-01-28T03:01:23;5.03;;;3.95;;
53108;SDS011;39007;53.090;6.074;2023-01-28T03:06:14;7.53;;;4.20;;
53108;SDS011;39007;53.090;6.074;2023-01-28T03:11:29;5.93;;;5.07;;
53108;SDS011;39007;53.090;6.074;2023-01-28T03:16:59;5.78;;;4.80;;
53108;SDS011;39007;53.090;6.074;2023-01-28T03:19:45;6.55;;;4.85;;
53108;SDS011;39007;53.090;6.074;2023-01-28T03:22:31;7.78;;;5.07;;
53108;SDS011;39007;53.090;6.074;2023-01-28T03:25:18;6.22;;;5.07;;
53108;SDS011;39007;53.090;6.074;2023-01-28T03:28:05;8.00;;;5.18;;
53108;SDS011;39007;53.090;6.074;2023-01-28T03:31:14;7.05;;;5.22;;
53108;SDS011;39007;53.090;6.074;2023-01-28T03:33:59;6.57;;;5.00;;
53108;SDS011;39007;53.090;6.074;2023-01-28T03:36:45;8.60;;;5.28;;
53108;SDS011;39007;53.090;6.074;2023-01-28T03:39:15;6.65;;;5.30;;
53108;SDS011;39007;53.090;6.074;2023-01-28T03:41:41;7.18;;;5.32;;
53108;SDS011;39007;53.090;6.074;2023-01-28T03:44:08;6.47;;;5.47;;
53108;SDS011;39007;53.090;6.074;2023-01-28T03:46:53;8.05;;;5.18;;
53108;SDS011;39007;53.090;6.074;2023-01-28T03:49:19;7.53;;;4.80;;
53108;SDS011;39007;53.090;6.074;2023-01-28T03:51:45;5.68;;;4.60;;
53108;SDS011;39007;53.090;6.074;2023-01-28T03:54:11;5.63;;;4.35;;
53108;SDS011;39007;53.090;6.074;2023-01-28T03:56:37;5.65;;;4.57;;
53108;SDS011;39007;53.090;6.074;2023-01-28T03:59:05;6.25;;;4.65;;
53108;SDS011;39007;53.090;6.074;2023-01-28T04:01:31;6.57;;;5.22;;
53108;SDS011;39007;53.090;6.074;2023-01-28T04:03:57;6.28;;;5.10;;
53108;SDS011;39007;53.090;6.074;2023-01-28T04:06:23;5.80;;;4.78;;
53108;SDS011;39007;53.090;6.074;2023-01-28T04:08:49;8.05;;;5.60;;
53108;SDS011;39007;53.090;6.074;2023-01-28T04:11:20;7.30;;;5.35;;
53108;SDS011;39007;53.090;6.074;2023-01-28T04:13:50;5.72;;;4.70;;
53108;SDS011;39007;53.090;6.074;2023-01-28T04:16:17;5.75;;;5.00;;
53108;SDS011;39007;53.090;6.074;2023-01-28T04:18:43;6.57;;;5.05;;
53108;SDS011;39007;53.090;6.074;2023-01-28T04:21:09;6.30;;;5.20;;
53108;SDS011;39007;53.090;6.074;2023-01-28T04:23:36;6.25;;;4.90;;
53108;SDS011;39007;53.090;6.074;2023-01-28T04:26:02;8.35;;;5.07;;
53108;SDS011;39007;53.090;6.074;2023-01-28T04:28:28;7.20;;;4.75;;
53108;SDS011;39007;53.090;6.074;2023-01-28T04:30:55;7.85;;;5.40;;
53108;SDS011;39007;53.090;6.074;2023-01-28T04:33:21;7.20;;;5.38;;
53108;SDS011;39007;53.090;6.074;2023-01-28T04:35:47;6.43;;;5.25;;
53108;SDS011;39007;53.090;6.074;2023-01-28T04:38:13;6.50;;;5.32;;
53108;SDS011;39007;53.090;6.074;2023-01-28T04:40:39;5.65;;;4.97;;
53108;SDS011;39007;53.090;6.074;2023-01-28T04:43:05;5.95;;;5.05;;
53108;SDS011;39007;53.090;6.074;2023-01-28T04:45:31;6.55;;;4.47;;
53108;SDS011;39007;53.090;6.074;2023-01-28T04:47:57;6.65;;;4.70;;
53108;SDS011;39007;53.090;6.074;2023-01-28T04:50:24;7.30;;;4.75;;
53108;SDS011;39007;53.090;6.074;2023-01-28T04:52:50;5.68;;;4.63;;
53108;SDS011;39007;53.090;6.074;2023-01-28T04:55:16;8.15;;;4.82;;
53108;SDS011;39007;53.090;6.074;2023-01-28T04:57:42;6.90;;;4.90;;
53108;SDS011;39007;53.090;6.074;2023-01-28T05:00:08;5.50;;;4.70;;
53108;SDS011;39007;53.090;6.074;2023-01-28T05:02:34;6.03;;;4.90;;
53108;SDS011;39007;53.090;6.074;2023-01-28T05:05:00;5.50;;;4.85;;
53108;SDS011;39007;53.090;6.074;2023-01-28T05:07:29;6.10;;;4.70;;
53108;SDS011;39007;53.090;6.074;2023-01-28T05:09:55;6.10;;;4.60;;
53108;SDS011;39007;53.090;6.074;2023-01-28T05:12:21;6.22;;;4.82;;
53108;SDS011;39007;53.090;6.074;2023-01-28T05:14:47;6.20;;;5.07;;
53108;SDS011;39007;53.090;6.074;2023-01-28T05:17:13;7.25;;;4.45;;
53108;SDS011;39007;53.090;6.074;2023-01-28T05:19:39;6.55;;;4.40;;
53108;SDS011;39007;53.090;6.074;2023-01-28T05:22:05;5.75;;;4.88;;
53108;SDS011;39007;53.090;6.074;2023-01-28T05:24:31;5.60;;;4.45;;
53108;SDS011;39007;53.090;6.074;2023-01-28T05:26:57;5.72;;;4.53;;
53108;SDS011;39007;53.090;6.074;2023-01-28T05:29:23;6.20;;;4.70;;
53108;SDS011;39007;53.090;6.074;2023-01-28T05:31:49;5.90;;;4.90;;
53108;SDS011;39007;53.090;6.074;2023-01-28T05:34:15;6.57;;;4.78;;
53108;SDS011;39007;53.090;6.074;2023-01-28T05:36:41;5.80;;;4.68;;
53108;SDS011;39007;53.090;6.074;2023-01-28T05:39:07;7.25;;;5.10;;
53108;SDS011;39007;53.090;6.074;2023-01-28T05:41:33;6.78;;;5.28;;
53108;SDS011;39007;53.090;6.074;2023-01-28T05:43:59;6.15;;;4.90;;
53108;SDS011;39007;53.090;6.074;2023-01-28T05:46:26;5.63;;;4.90;;
53108;SDS011;39007;53.090;6.074;2023-01-28T05:48:52;5.93;;;4.72;;
53108;SDS011;39007;53.090;6.074;2023-01-28T05:51:18;6.97;;;5.30;;
53108;SDS011;39007;53.090;6.074;2023-01-28T05:53:44;6.63;;;5.18;;
53108;SDS011;39007;53.090;6.074;2023-01-28T05:56:10;6.05;;;5.35;;
53108;SDS011;39007;53.090;6.074;2023-01-28T05:58:36;7.13;;;5.30;;
53108;SDS011;39007;53.090;6.074;2023-01-28T06:01:02;6.50;;;5.43;;
53108;SDS011;39007;53.090;6.074;2023-01-28T06:03:29;6.97;;;5.82;;
53108;SDS011;39007;53.090;6.074;2023-01-28T06:05:55;7.40;;;5.13;;
53108;SDS011;39007;53.090;6.074;2023-01-28T06:08:21;7.15;;;5.40;;
53108;SDS011;39007;53.090;6.074;2023-01-28T06:10:47;7.30;;;5.35;;
53108;SDS011;39007;53.090;6.074;2023-01-28T06:13:13;6.63;;;5.38;;
53108;SDS011;39007;53.090;6.074;2023-01-28T06:15:39;6.72;;;5.53;;
53108;SDS011;39007;53.090;6.074;2023-01-28T06:18:05;8.20;;;5.30;;
53108;SDS011;39007;53.090;6.074;2023-01-28T06:20:31;7.07;;;5.65;;
53108;SDS011;39007;53.090;6.074;2023-01-28T06:22:57;7.65;;;5.53;;
53108;SDS011;39007;53.090;6.074;2023-01-28T06:25:24;6.88;;;5.25;;
53108;SDS011;39007;53.090;6.074;2023-01-28T06:27:50;6.53;;;5.50;;
53108;SDS011;39007;53.090;6.074;2023-01-28T06:30:16;7.30;;;5.53;;
53108;SDS011;39007;53.090;6.074;2023-01-28T06:32:42;6.95;;;5.18;;
53108;SDS011;39007;53.090;6.074;2023-01-28T06:35:08;6.13;;;5.40;;
53108;SDS011;39007;53.090;6.074;2023-01-28T06:37:35;5.88;;;5.05;;
53108;SDS011;39007;53.090;6.074;2023-01-28T06:40:02;6.75;;;5.50;;
53108;SDS011;39007;53.090;6.074;2023-01-28T06:42:28;9.15;;;5.53;;
53108;SDS011;39007;53.090;6.074;2023-01-28T06:44:54;6.82;;;5.90;;
53108;SDS011;39007;53.090;6.074;2023-01-28T06:47:20;7.53;;;5.72;;
53108;SDS011;39007;53.090;6.074;2023-01-28T06:49:46;7.47;;;5.40;;
53108;SDS011;39007;53.090;6.074;2023-01-28T06:52:13;7.50;;;5.93;;
53108;SDS011;39007;53.090;6.074;2023-01-28T06:54:39;7.95;;;5.60;;
53108;SDS011;39007;53.090;6.074;2023-01-28T06:57:05;6.93;;;6.00;;
53108;SDS011;39007;53.090;6.074;2023-01-28T06:59:31;7.20;;;6.25;;
53108;SDS011;39007;53.090;6.074;2023-01-28T07:01:57;8.55;;;6.43;;
53108;SDS011;39007;53.090;6.074;2023-01-28T07:04:23;8.18;;;5.70;;
53108;SDS011;39007;53.090;6.074;2023-01-28T07:06:49;10.55;;;6.18;;
53108;SDS011;39007;53.090;6.074;2023-01-28T07:09:15;7.40;;;6.32;;
53108;SDS011;39007;53.090;6.074;2023-01-28T07:11:41;8.57;;;6.78;;
53108;SDS011;39007;53.090;6.074;2023-01-28T07:14:07;7.35;;;6.32;;
53108;SDS011;39007;53.090;6.074;2023-01-28T07:16:34;8.18;;;6.53;;
53108;SDS011;39007;53.090;6.074;2023-01-28T07:19:00;8.57;;;6.97;;
53108;SDS011;39007;53.090;6.074;2023-01-28T07:21:26;9.18;;;7.57;;
53108;SDS011;39007;53.090;6.074;2023-01-28T07:23:52;9.30;;;7.25;;
53108;SDS011;39007;53.090;6.074;2023-01-28T07:26:18;7.85;;;6.95;;
53108;SDS011;39007;53.090;6.074;2023-01-28T07:28:44;9.13;;;7.05;;
53108;SDS011;39007;53.090;6.074;2023-01-28T07:31:13;8.73;;;7.43;;
53108;SDS011;39007;53.090;6.074;2023-01-28T07:33:39;8.95;;;7.70;;
53108;SDS011;39007;53.090;6.074;2023-01-28T07:36:05;8.48;;;7.22;;
53108;SDS011;39007;53.090;6.074;2023-01-28T07:38:31;9.65;;;7.25;;
53108;SDS011;39007;53.090;6.074;2023-01-28T07:40:57;8.82;;;7.15;;
53108;SDS011;39007;53.090;6.074;2023-01-28T07:43:23;8.82;;;7.70;;
53108;SDS011;39007;53.090;6.074;2023-01-28T07:45:49;8.88;;;7.53;;
53108;SDS011;39007;53.090;6.074;2023-01-28T07:48:16;9.32;;;7.47;;
53108;SDS011;39007;53.090;6.074;2023-01-28T07:50:42;10.70;;;8.07;;
53108;SDS011;39007;53.090;6.074;2023-01-28T07:53:10;9.18;;;7.88;;
53108;SDS011;39007;53.090;6.074;2023-01-28T07:55:36;9.00;;;8.07;;
53108;SDS011;39007;53.090;6.074;2023-01-28T07:58:04;9.32;;;8.13;;
53108;SDS011;39007;53.090;6.074;2023-01-28T08:00:31;9.80;;;7.70;;
53108;SDS011;39007;53.090;6.074;2023-01-28T08:02:58;11.07;;;8.23;;
53108;SDS011;39007;53.090;6.074;2023-01-28T08:05:24;11.95;;;7.85;;
53108;SDS011;39007;53.090;6.074;2023-01-28T08:07:51;10.50;;;8.63;;
53108;SDS011;39007;53.090;6.074;2023-01-28T08:10:17;10.77;;;8.43;;
53108;SDS011;39007;53.090;6.074;2023-01-28T08:12:53;10.57;;;8.32;;
53108;SDS011;39007;53.090;6.074;2023-01-28T08:15:20;11.05;;;8.40;;
53108;SDS011;39007;53.090;6.074;2023-01-28T08:17:46;10.95;;;9.38;;
53108;SDS011;39007;53.090;6.074;2023-01-28T08:20:15;12.32;;;9.35;;
53108;SDS011;39007;53.090;6.074;2023-01-28T08:22:41;12.35;;;9.57;;
53108;SDS011;39007;53.090;6.074;2023-01-28T08:25:07;11.90;;;8.50;;
53108;SDS011;39007;53.090;6.074;2023-01-28T08:27:33;10.50;;;9.40;;
53108;SDS011;39007;53.090;6.074;2023-01-28T08:30:00;13.95;;;10.25;;
53108;SDS011;39007;53.090;6.074;2023-01-28T08:32:27;10.80;;;9.63;;
53108;SDS011;39007;53.090;6.074;2023-01-28T08:34:53;11.60;;;9.25;;
53108;SDS011;39007;53.090;6.074;2023-01-28T08:37:19;12.35;;;9.05;;
53108;SDS011;39007;53.090;6.074;2023-01-28T08:39:45;9.75;;;8.75;;
53108;SDS011;39007;53.090;6.074;2023-01-28T08:42:11;11.43;;;9.25;;
53108;SDS011;39007;53.090;6.074;2023-01-28T08:44:37;10.60;;;9.10;;
53108;SDS011;39007;53.090;6.074;2023-01-28T08:47:03;10.05;;;9.00;;
53108;SDS011;39007;53.090;6.074;2023-01-28T08:49:29;9.82;;;8.82;;
53108;SDS011;39007;53.090;6.074;2023-01-28T08:51:55;11.05;;;9.20;;
53108;SDS011;39007;53.090;6.074;2023-01-28T08:54:22;10.23;;;9.15;;
53108;SDS011;39007;53.090;6.074;2023-01-28T08:56:48;10.40;;;9.30;;
53108;SDS011;39007;53.090;6.074;2023-01-28T08:59:15;11.95;;;10.75;;
53108;SDS011;39007;53.090;6.074;2023-01-28T09:01:41;13.30;;;9.90;;
53108;SDS011;39007;53.090;6.074;2023-01-28T09:04:08;12.55;;;10.85;;
53108;SDS011;39007;53.090;6.074;2023-01-28T09:06:34;11.05;;;9.93;;
53108;SDS011;39007;53.090;6.074;2023-01-28T09:09:00;10.77;;;9.38;;
53108;SDS011;39007;53.090;6.074;2023-01-28T09:11:26;10.73;;;9.63;;
53108;SDS011;39007;53.090;6.074;2023-01-28T09:13:53;10.70;;;9.30;;
53108;SDS011;39007;53.090;6.074;2023-01-28T09:16:19;10.57;;;9.38;;
53108;SDS011;39007;53.090;6.074;2023-01-28T09:18:45;11.25;;;9.50;;
53108;SDS011;39007;53.090;6.074;2023-01-28T09:21:12;10.55;;;9.00;;
53108;SDS011;39007;53.090;6.074;2023-01-28T09:23:38;10.13;;;8.32;;
53108;SDS011;39007;53.090;6.074;2023-01-28T09:26:05;11.25;;;9.73;;
53108;SDS011;39007;53.090;6.074;2023-01-28T09:28:31;10.50;;;9.35;;
53108;SDS011;39007;53.090;6.074;2023-01-28T09:31:01;10.38;;;9.07;;
53108;SDS011;39007;53.090;6.074;2023-01-28T09:33:28;9.63;;;8.63;;
53108;SDS011;39007;53.090;6.074;2023-01-28T09:35:54;10.27;;;8.82;;
53108;SDS011;39007;53.090;6.074;2023-01-28T09:38:20;9.38;;;8.48;;
53108;SDS011;39007;53.090;6.074;2023-01-28T09:40:46;9.02;;;8.05;;
53108;SDS011;39007;53.090;6.074;2023-01-28T09:45:44;9.73;;;7.80;;
53108;SDS011;39007;53.090;6.074;2023-01-28T09:48:29;9.70;;;8.07;;
53108;SDS011;39007;53.090;6.074;2023-01-28T09:50:58;9.45;;;8.32;;
53108;SDS011;39007;53.090;6.074;2023-01-28T09:53:32;8.77;;;7.88;;
53108;SDS011;39007;53.090;6.074;2023-01-28T09:56:01;10.25;;;7.90;;
53108;SDS011;39007;53.090;6.074;2023-01-28T09:58:27;8.68;;;7.78;;
53108;SDS011;39007;53.090;6.074;2023-01-28T10:06:08;8.82;;;7.43;;
53108;SDS011;39007;53.090;6.074;2023-01-28T10:11:17;9.27;;;8.32;;
53108;SDS011;39007;53.090;6.074;2023-01-28T10:16:38;8.88;;;7.95;;
53108;SDS011;39007;53.090;6.074;2023-01-28T10:19:09;10.27;;;8.07;;
53108;SDS011;39007;53.090;6.074;2023-01-28T10:21:41;10.55;;;8.73;;
53108;SDS011;39007;53.090;6.074;2023-01-28T10:26:44;9.90;;;8.27;;
53108;SDS011;39007;53.090;6.074;2023-01-28T10:29:15;9.20;;;8.23;;
53108;SDS011;39007;53.090;6.074;2023-01-28T10:31:44;9.55;;;8.55;;
53108;SDS011;39007;53.090;6.074;2023-01-28T10:34:12;8.85;;;7.78;;
53108;SDS011;39007;53.090;6.074;2023-01-28T10:36:38;8.20;;;7.40;;
53108;SDS011;39007;53.090;6.074;2023-01-28T10:39:04;8.35;;;7.18;;
53108;SDS011;39007;53.090;6.074;2023-01-28T10:41:31;10.20;;;7.65;;
53108;SDS011;39007;53.090;6.074;2023-01-28T10:43:57;8.35;;;7.30;;
53108;SDS011;39007;53.090;6.074;2023-01-28T10:46:26;8.68;;;7.65;;
53108;SDS011;39007;53.090;6.074;2023-01-28T10:48:55;10.13;;;8.05;;
53108;SDS011;39007;53.090;6.074;2023-01-28T10:51:32;9.85;;;8.63;;
53108;SDS011;39007;53.090;6.074;2023-01-28T10:53:59;11.82;;;9.02;;
53108;SDS011;39007;53.090;6.074;2023-01-28T10:56:29;12.90;;;9.23;;
53108;SDS011;39007;53.090;6.074;2023-01-28T10:58:57;11.57;;;9.20;;
53108;SDS011;39007;53.090;6.074;2023-01-28T11:01:24;10.70;;;9.05;;
53108;SDS011;39007;53.090;6.074;2023-01-28T11:03:57;10.77;;;8.88;;
53108;SDS011;39007;53.090;6.074;2023-01-28T11:06:27;10.35;;;8.88;;
53108;SDS011;39007;53.090;6.074;2023-01-28T11:08:53;10.43;;;8.80;;
53108;SDS011;39007;53.090;6.074;2023-01-28T11:11:26;11.63;;;9.30;;
53108;SDS011;39007;53.090;6.074;2023-01-28T11:13:53;12.63;;;9.23;;
53108;SDS011;39007;53.090;6.074;2023-01-28T11:16:22;10.90;;;8.70;;
53108;SDS011;39007;53.090;6.074;2023-01-28T11:19:02;10.57;;;8.43;;
53108;SDS011;39007;53.090;6.074;2023-01-28T11:21:31;10.13;;;9.05;;
53108;SDS011;39007;53.090;6.074;2023-01-28T11:24:00;12.18;;;9.00;;
53108;SDS011;39007;53.090;6.074;2023-01-28T11:26:27;10.82;;;9.15;;
53108;SDS011;39007;53.090;6.074;2023-01-28T11:28:54;12.10;;;9.27;;
53108;SDS011;39007;53.090;6.074;2023-01-28T11:31:21;12.80;;;8.55;;
53108;SDS011;39007;53.090;6.074;2023-01-28T11:33:51;11.40;;;8.38;;
53108;SDS011;39007;53.090;6.074;2023-01-28T11:36:22;10.57;;;8.10;;
53108;SDS011;39007;53.090;6.074;2023-01-28T11:38:55;8.98;;;7.95;;
53108;SDS011;39007;53.090;6.074;2023-01-28T11:41:27;10.32;;;7.95;;
53108;SDS011;39007;53.090;6.074;2023-01-28T11:43:53;10.77;;;8.15;;
53108;SDS011;39007;53.090;6.074;2023-01-28T11:54:25;9.95;;;7.85;;
53108;SDS011;39007;53.090;6.074;2023-01-28T12:10:36;9.55;;;7.97;;
53108;SDS011;39007;53.090;6.074;2023-01-28T12:13:13;8.63;;;7.72;;
53108;SDS011;39007;53.090;6.074;2023-01-28T12:15:53;11.10;;;8.60;;
53108;SDS011;39007;53.090;6.074;2023-01-28T12:33:37;11.57;;;7.25;;
53108;SDS011;39007;53.090;6.074;2023-01-28T12:36:49;8.88;;;6.75;;
53108;SDS011;39007;53.090;6.074;2023-01-28T12:38:59;7.80;;;6.15;;
53108;SDS011;39007;53.090;6.074;2023-01-28T12:41:29;9.43;;;7.05;;
53108;SDS011;39007;53.090;6.074;2023-01-28T12:44:02;9.05;;;6.75;;
53108;SDS011;39007;53.090;6.074;2023-01-28T12:51:48;9.13;;;6.68;;
53108;SDS011;39007;53.090;6.074;2023-01-28T12:56:52;9.15;;;7.50;;
53108;SDS011;39007;53.090;6.074;2023-01-28T13:06:57;9.93;;;8.38;;
53108;SDS011;39007;53.090;6.074;2023-01-28T13:09:24;13.00;;;8.73;;
53108;SDS011;39007;53.090;6.074;2023-01-28T13:11:52;11.80;;;7.82;;
53108;SDS011;39007;53.090;6.074;2023-01-28T13:14:20;11.27;;;9.18;;
53108;SDS011;39007;53.090;6.074;2023-01-28T13:16:47;12.40;;;9.23;;
53108;SDS011;39007;53.090;6.074;2023-01-28T13:21:42;15.05;;;8.57;;
53108;SDS011;39007;53.090;6.074;2023-01-28T13:29:07;10.18;;;7.35;;
53108;SDS011;39007;53.090;6.074;2023-01-28T13:31:37;10.65;;;7.28;;
53108;SDS011;39007;53.090;6.074;2023-01-28T13:34:05;10.73;;;7.47;;
53108;SDS011;39007;53.090;6.074;2023-01-28T13:39:23;10.48;;;7.15;;
53108;SDS011;39007;53.090;6.074;2023-01-28T13:41:51;11.02;;;7.30;;
53108;SDS011;39007;53.090;6.074;2023-01-28T13:44:26;12.57;;;7.88;;
53108;SDS011;39007;53.090;6.074;2023-01-28T13:46:53;10.77;;;8.17;;
53108;SDS011;39007;53.090;6.074;2023-01-28T13:49:31;11.60;;;7.68;;
53108;SDS011;39007;53.090;6.074;2023-01-28T13:52:00;10.93;;;9.07;;
53108;SDS011;39007;53.090;6.074;2023-01-28T13:54:29;11.75;;;7.93;;
53108;SDS011;39007;53.090;6.074;2023-01-28T14:02:02;11.45;;;8.45;;
53108;SDS011;39007;53.090;6.074;2023-01-28T14:15:09;13.80;;;8.52;;
53108;SDS011;39007;53.090;6.074;2023-01-28T14:17:41;11.70;;;8.93;;
53108;SDS011;39007;53.090;6.074;2023-01-28T14:20:14;12.10;;;9.60;;
53108;SDS011;39007;53.090;6.074;2023-01-28T14:22:42;13.25;;;8.73;;
53108;SDS011;39007;53.090;6.074;2023-01-28T14:25:14;10.50;;;7.82;;
53108;SDS011;39007;53.090;6.074;2023-01-28T14:27:42;12.57;;;7.80;;
53108;SDS011;39007;53.090;6.074;2023-01-28T14:30:24;12.90;;;7.57;;
53108;SDS011;39007;53.090;6.074;2023-01-28T14:32:53;9.77;;;7.43;;
53108;SDS011;39007;53.090;6.074;2023-01-28T14:35:29;10.15;;;7.80;;
53108;SDS011;39007;53.090;6.074;2023-01-28T14:37:57;11.90;;;8.00;;
53108;SDS011;39007;53.090;6.074;2023-01-28T14:40:24;11.55;;;8.27;;
53108;SDS011;39007;53.090;6.074;2023-01-28T14:42:54;11.05;;;7.90;;
53108;SDS011;39007;53.090;6.074;2023-01-28T14:50:21;10.25;;;8.02;;
53108;SDS011;39007;53.090;6.074;2023-01-28T14:57:57;10.40;;;6.82;;
53108;SDS011;39007;53.090;6.074;2023-01-28T15:00:26;11.88;;;7.80;;
53108;SDS011;39007;53.090;6.074;2023-01-28T15:02:52;10.63;;;7.15;;
53108;SDS011;39007;53.090;6.074;2023-01-28T15:05:27;8.60;;;6.90;;
53108;SDS011;39007;53.090;6.074;2023-01-28T15:07:54;10.23;;;6.78;;
53108;SDS011;39007;53.090;6.074;2023-01-28T15:10:25;10.68;;;6.95;;
53108;SDS011;39007;53.090;6.074;2023-01-28T15:13:17;9.00;;;6.72;;
53108;SDS011;39007;53.090;6.074;2023-01-28T15:15:40;11.45;;;7.22;;
53108;SDS011;39007;53.090;6.074;2023-01-28T15:18:12;12.85;;;6.88;;
53108;SDS011;39007;53.090;6.074;2023-01-28T15:20:42;9.32;;;6.68;;
53108;SDS011;39007;53.090;6.074;2023-01-28T15:23:08;10.15;;;6.95;;
53108;SDS011;39007;53.090;6.074;2023-01-28T15:25:34;11.55;;;6.78;;
53108;SDS011;39007;53.090;6.074;2023-01-28T15:28:01;12.82;;;6.30;;
53108;SDS011;39007;53.090;6.074;2023-01-28T15:30:29;10.68;;;6.32;;
53108;SDS011;39007;53.090;6.074;2023-01-28T15:32:56;10.50;;;6.45;;
53108;SDS011;39007;53.090;6.074;2023-01-28T15:35:23;10.60;;;6.22;;
53108;SDS011;39007;53.090;6.074;2023-01-28T15:37:49;8.48;;;6.30;;
53108;SDS011;39007;53.090;6.074;2023-01-28T15:40:16;10.15;;;6.43;;
53108;SDS011;39007;53.090;6.074;2023-01-28T15:42:44;8.75;;;5.70;;
53108;SDS011;39007;53.090;6.074;2023-01-28T15:45:14;9.25;;;6.10;;
53108;SDS011;39007;53.090;6.074;2023-01-28T15:47:41;8.88;;;6.25;;
53108;SDS011;39007;53.090;6.074;2023-01-28T15:50:07;10.38;;;6.60;;
53108;SDS011;39007;53.090;6.074;2023-01-28T15:52:40;8.82;;;5.75;;
53108;SDS011;39007;53.090;6.074;2023-01-28T15:55:26;8.93;;;5.30;;
53108;SDS011;39007;53.090;6.074;2023-01-28T15:57:53;13.27;;;6.43;;
53108;SDS011;39007;53.090;6.074;2023-01-28T16:00:20;9.27;;;6.20;;
53108;SDS011;39007;53.090;6.074;2023-01-28T16:02:47;7.93;;;5.00;;
53108;SDS011;39007;53.090;6.074;2023-01-28T16:07:49;8.63;;;4.70;;
53108;SDS011;39007;53.090;6.074;2023-01-28T16:10:18;8.00;;;4.50;;
53108;SDS011;39007;53.090;6.074;2023-01-28T16:12:48;10.45;;;4.82;;
53108;SDS011;39007;53.090;6.074;2023-01-28T16:15:17;9.02;;;4.80;;
53108;SDS011;39007;53.090;6.074;2023-01-28T16:17:46;7.72;;;4.13;;
53108;SDS011;39007;53.090;6.074;2023-01-28T16:22:44;9.40;;;4.63;;
53108;SDS011;39007;53.090;6.074;2023-01-28T16:27:45;8.43;;;4.93;;
53108;SDS011;39007;53.090;6.074;2023-01-28T16:30:12;9.60;;;4.97;;
53108;SDS011;39007;53.090;6.074;2023-01-28T16:32:38;11.10;;;4.97;;
53108;SDS011;39007;53.090;6.074;2023-01-28T16:35:16;8.25;;;4.50;;
53108;SDS011;39007;53.090;6.074;2023-01-28T16:37:43;8.40;;;4.50;;
53108;SDS011;39007;53.090;6.074;2023-01-28T16:40:12;9.15;;;5.20;;
53108;SDS011;39007;53.090;6.074;2023-01-28T16:42:39;9.23;;;5.20;;
53108;SDS011;39007;53.090;6.074;2023-01-28T16:45:05;12.65;;;5.15;;
53108;SDS011;39007;53.090;6.074;2023-01-28T16:47:31;8.02;;;5.53;;
53108;SDS011;39007;53.090;6.074;2023-01-28T16:49:57;8.35;;;5.68;;
53108;SDS011;39007;53.090;6.074;2023-01-28T16:52:23;9.80;;;5.40;;
53108;SDS011;39007;53.090;6.074;2023-01-28T16:54:49;9.93;;;5.55;;
53108;SDS011;39007;53.090;6.074;2023-01-28T16:57:17;10.50;;;5.35;;
53108;SDS011;39007;53.090;6.074;2023-01-28T16:59:44;9.77;;;5.63;;
53108;SDS011;39007;53.090;6.074;2023-01-28T17:02:13;10.25;;;6.18;;
53108;SDS011;39007;53.090;6.074;2023-01-28T17:04:40;9.98;;;5.15;;
53108;SDS011;39007;53.090;6.074;2023-01-28T17:07:06;10.75;;;6.60;;
53108;SDS011;39007;53.090;6.074;2023-01-28T17:09:32;9.68;;;6.15;;